sensor_id;sensor_type;location;lat;lon;timestamp;pressure;altitude;pressure_sealevel;temperature;humidity
74079;BME280;62437;51.544;-3.276;2022-09-27T00:00:48;100089.73;;;12.77;48.44
74079;BME280;62437;51.544;-3.276;2022-09-27T00:03:14;100092.00;;;12.87;48.02
74079;BME280;62437;51.544;-3.276;2022-09-27T00:05:40;100090.33;;;12.39;48.12
74079;BME280;62437;51.544;-3.276;2022-09-27T00:08:05;100098.35;;;13.20;46.60
74079;BME280;62437;51.544;-3.276;2022-09-27T00:10:31;100103.44;;;13.10;45.96
74079;BME280;62437;51.544;-3.276;2022-09-27T00:12:58;100109.11;;;13.36;46.40
74079;BME280;62437;51.544;-3.276;2022-09-27T00:15:22;100113.39;;;13.17;46.39
74079;BME280;62437;51.544;-3.276;2022-09-27T00:20:15;100114.31;;;13.52;46.21
74079;BME280;62437;51.544;-3.276;2022-09-27T00:22:39;100117.52;;;13.26;46.28
74079;BME280;62437;51.544;-3.276;2022-09-27T00:25:06;100114.94;;;13.31;46.48
74079;BME280;62437;51.544;-3.276;2022-09-27T00:27:31;100109.91;;;12.64;46.56
74079;BME280;62437;51.544;-3.276;2022-09-27T00:29:56;100102.55;;;12.21;48.13
74079;BME280;62437;51.544;-3.276;2022-09-27T00:32:22;100094.71;;;12.90;47.35
74079;BME280;62437;51.544;-3.276;2022-09-27T00:34:47;100087.79;;;13.18;46.55
74079;BME280;62437;51.544;-3.276;2022-09-27T00:37:13;100091.98;;;13.04;46.96
74079;BME280;62437;51.544;-3.276;2022-09-27T00:39:39;100092.09;;;12.81;47.35
74079;BME280;62437;51.544;-3.276;2022-09-27T00:42:04;100094.30;;;13.06;46.53
74079;BME280;62437;51.544;-3.276;2022-09-27T00:47:00;100086.61;;;12.98;46.36
74079;BME280;62437;51.544;-3.276;2022-09-27T00:49:24;100084.72;;;13.13;46.58
74079;BME280;62437;51.544;-3.276;2022-09-27T00:51:51;100086.43;;;12.80;47.19
74079;BME280;62437;51.544;-3.276;2022-09-27T00:54:14;100088.89;;;13.17;46.69
74079;BME280;62437;51.544;-3.276;2022-09-27T00:56:39;100084.55;;;12.92;46.71
74079;BME280;62437;51.544;-3.276;2022-09-27T00:59:10;100082.72;;;13.05;46.80
74079;BME280;62437;51.544;-3.276;2022-09-27T01:01:30;100084.17;;;12.92;46.53
74079;BME280;62437;51.544;-3.276;2022-09-27T01:04:00;100081.31;;;12.72;46.66
74079;BME280;62437;51.544;-3.276;2022-09-27T01:06:21;100075.17;;;13.04;46.48
74079;BME280;62437;51.544;-3.276;2022-09-27T01:08:47;100071.99;;;12.87;47.11
74079;BME280;62437;51.544;-3.276;2022-09-27T01:11:19;100074.42;;;12.81;46.89
74079;BME280;62437;51.544;-3.276;2022-09-27T01:13:46;100065.63;;;12.98;46.86
74079;BME280;62437;51.544;-3.276;2022-09-27T01:16:11;100061.75;;;12.90;46.84
74079;BME280;62437;51.544;-3.276;2022-09-27T01:18:33;100064.22;;;12.59;47.52
74079;BME280;62437;51.544;-3.276;2022-09-27T01:21:11;100050.80;;;12.97;47.00
74079;BME280;62437;51.544;-3.276;2022-09-27T01:25:58;100054.59;;;12.85;46.88
74079;BME280;62437;51.544;-3.276;2022-09-27T01:28:19;100053.65;;;12.86;47.31
74079;BME280;62437;51.544;-3.276;2022-09-27T01:30:44;100057.03;;;13.15;46.49
74079;BME280;62437;51.544;-3.276;2022-09-27T01:33:12;100061.47;;;12.63;47.61
74079;BME280;62437;51.544;-3.276;2022-09-27T01:35:35;100060.13;;;12.94;47.15
74079;BME280;62437;51.544;-3.276;2022-09-27T01:38:02;100041.35;;;12.96;46.89
74079;BME280;62437;51.544;-3.276;2022-09-27T01:40:26;100031.31;;;12.87;46.62
74079;BME280;62437;51.544;-3.276;2022-09-27T01:42:48;100033.59;;;13.23;46.08
74079;BME280;62437;51.544;-3.276;2022-09-27T01:45:17;100029.94;;;12.84;47.51
74079;BME280;62437;51.544;-3.276;2022-09-27T01:52:34;100024.92;;;12.04;47.55
74079;BME280;62437;51.544;-3.276;2022-09-27T01:54:56;100030.77;;;12.18;47.99
74079;BME280;62437;51.544;-3.276;2022-09-27T01:57:22;100032.96;;;11.88;48.37
74079;BME280;62437;51.544;-3.276;2022-09-27T01:59:48;100047.85;;;11.64;48.93
74079;BME280;62437;51.544;-3.276;2022-09-27T02:02:11;100039.24;;;12.32;48.00
74079;BME280;62437;51.544;-3.276;2022-09-27T02:04:40;100038.25;;;12.40;47.22
74079;BME280;62437;51.544;-3.276;2022-09-27T02:07:07;100038.96;;;12.00;47.96
74079;BME280;62437;51.544;-3.276;2022-09-27T02:09:32;100043.11;;;12.40;49.32
74079;BME280;62437;51.544;-3.276;2022-09-27T02:11:56;100046.96;;;12.02;48.36
74079;BME280;62437;51.544;-3.276;2022-09-27T02:14:22;100038.02;;;12.30;47.49
74079;BME280;62437;51.544;-3.276;2022-09-27T02:16:49;100038.71;;;12.64;46.96
74079;BME280;62437;51.544;-3.276;2022-09-27T02:19:17;100044.47;;;12.82;47.16
74079;BME280;62437;51.544;-3.276;2022-09-27T02:21:40;100042.32;;;12.80;47.44
74079;BME280;62437;51.544;-3.276;2022-09-27T02:24:02;100028.26;;;12.53;46.78
74079;BME280;62437;51.544;-3.276;2022-09-27T02:26:32;100024.98;;;12.13;46.79
74079;BME280;62437;51.544;-3.276;2022-09-27T02:28:57;100033.08;;;12.58;46.99
74079;BME280;62437;51.544;-3.276;2022-09-27T02:31:17;100032.91;;;12.34;46.59
74079;BME280;62437;51.544;-3.276;2022-09-27T02:33:44;100029.83;;;12.30;47.51
74079;BME280;62437;51.544;-3.276;2022-09-27T02:36:08;100029.89;;;11.73;47.76
74079;BME280;62437;51.544;-3.276;2022-09-27T02:38:34;100030.48;;;11.95;47.94
74079;BME280;62437;51.544;-3.276;2022-09-27T02:41:00;100027.66;;;12.03;47.67
74079;BME280;62437;51.544;-3.276;2022-09-27T02:43:28;100023.51;;;12.74;47.05
74079;BME280;62437;51.544;-3.276;2022-09-27T02:46:02;100016.26;;;11.99;47.91
74079;BME280;62437;51.544;-3.276;2022-09-27T02:48:23;100019.54;;;12.34;47.02
74079;BME280;62437;51.544;-3.276;2022-09-27T02:51:05;100016.57;;;12.76;47.02
74079;BME280;62437;51.544;-3.276;2022-09-27T02:53:16;100017.28;;;12.34;47.06
74079;BME280;62437;51.544;-3.276;2022-09-27T02:55:41;100017.80;;;12.33;47.24
74079;BME280;62437;51.544;-3.276;2022-09-27T02:58:08;100009.82;;;12.61;46.95
74079;BME280;62437;51.544;-3.276;2022-09-27T03:00:29;100002.11;;;12.24;47.29
74079;BME280;62437;51.544;-3.276;2022-09-27T03:02:56;100001.31;;;12.33;47.00
74079;BME280;62437;51.544;-3.276;2022-09-27T03:05:18;99999.89;;;12.34;47.95
74079;BME280;62437;51.544;-3.276;2022-09-27T03:07:41;99995.60;;;12.70;46.48
74079;BME280;62437;51.544;-3.276;2022-09-27T03:10:06;99991.86;;;12.32;47.00
74079;BME280;62437;51.544;-3.276;2022-09-27T03:12:33;99988.97;;;12.52;47.44
74079;BME280;62437;51.544;-3.276;2022-09-27T03:14:59;99981.80;;;12.54;46.90
74079;BME280;62437;51.544;-3.276;2022-09-27T03:17:24;99972.70;;;12.39;47.13
74079;BME280;62437;51.544;-3.276;2022-09-27T03:19:49;99975.41;;;12.66;46.29
74079;BME280;62437;51.544;-3.276;2022-09-27T03:22:15;99980.80;;;12.41;47.12
74079;BME280;62437;51.544;-3.276;2022-09-27T03:24:41;99976.41;;;12.51;47.70
74079;BME280;62437;51.544;-3.276;2022-09-27T03:27:07;99973.91;;;12.13;47.66
74079;BME280;62437;51.544;-3.276;2022-09-27T03:29:32;99974.05;;;12.14;47.07
74079;BME280;62437;51.544;-3.276;2022-09-27T03:31:58;99968.56;;;12.32;47.05
74079;BME280;62437;51.544;-3.276;2022-09-27T03:34:23;99965.98;;;12.38;47.09
74079;BME280;62437;51.544;-3.276;2022-09-27T03:36:49;99959.80;;;12.58;46.33
74079;BME280;62437;51.544;-3.276;2022-09-27T03:39:14;99954.89;;;12.19;47.08
74079;BME280;62437;51.544;-3.276;2022-09-27T03:41:40;99955.73;;;12.10;47.14
74079;BME280;62437;51.544;-3.276;2022-09-27T03:44:06;99951.72;;;12.07;47.53
74079;BME280;62437;51.544;-3.276;2022-09-27T03:46:31;99951.62;;;12.82;46.89
74079;BME280;62437;51.544;-3.276;2022-09-27T03:48:57;99953.05;;;12.46;47.07
74079;BME280;62437;51.544;-3.276;2022-09-27T03:51:23;99950.18;;;12.51;46.54
74079;BME280;62437;51.544;-3.276;2022-09-27T03:53:48;99941.17;;;12.42;47.14
74079;BME280;62437;51.544;-3.276;2022-09-27T03:56:14;99938.27;;;12.56;46.50
74079;BME280;62437;51.544;-3.276;2022-09-27T03:58:39;99947.94;;;12.47;46.57
74079;BME280;62437;51.544;-3.276;2022-09-27T04:01:05;99944.80;;;12.74;47.35
74079;BME280;62437;51.544;-3.276;2022-09-27T04:03:31;99943.94;;;12.36;46.98
74079;BME280;62437;51.544;-3.276;2022-09-27T04:05:56;99945.89;;;12.29;46.93
74079;BME280;62437;51.544;-3.276;2022-09-27T04:08:22;99935.13;;;12.49;46.40
74079;BME280;62437;51.544;-3.276;2022-09-27T04:10:47;99928.98;;;12.04;47.17
74079;BME280;62437;51.544;-3.276;2022-09-27T04:13:13;99919.67;;;11.82;49.24
74079;BME280;62437;51.544;-3.276;2022-09-27T04:15:38;99915.70;;;12.26;48.23
74079;BME280;62437;51.544;-3.276;2022-09-27T04:18:04;99912.99;;;12.48;47.48
74079;BME280;62437;51.544;-3.276;2022-09-27T04:20:29;99915.63;;;12.50;46.65
74079;BME280;62437;51.544;-3.276;2022-09-27T04:22:54;99920.34;;;12.47;46.35
74079;BME280;62437;51.544;-3.276;2022-09-27T04:25:20;99920.76;;;12.58;46.96
74079;BME280;62437;51.544;-3.276;2022-09-27T04:27:46;99919.33;;;12.05;47.54
74079;BME280;62437;51.544;-3.276;2022-09-27T04:30:12;99921.42;;;12.13;47.42
74079;BME280;62437;51.544;-3.276;2022-09-27T04:32:41;99921.70;;;12.30;46.72
74079;BME280;62437;51.544;-3.276;2022-09-27T04:35:03;99917.04;;;12.55;46.48
74079;BME280;62437;51.544;-3.276;2022-09-27T04:37:28;99916.75;;;12.81;46.46
74079;BME280;62437;51.544;-3.276;2022-09-27T04:39:54;99914.32;;;12.26;46.28
74079;BME280;62437;51.544;-3.276;2022-09-27T04:42:19;99913.90;;;12.35;46.42
74079;BME280;62437;51.544;-3.276;2022-09-27T04:44:45;99908.44;;;12.40;46.53
74079;BME280;62437;51.544;-3.276;2022-09-27T04:47:11;99906.99;;;11.93;47.10
74079;BME280;62437;51.544;-3.276;2022-09-27T04:49:36;99907.82;;;12.75;46.44
74079;BME280;62437;51.544;-3.276;2022-09-27T04:52:02;99914.12;;;11.99;47.22
74079;BME280;62437;51.544;-3.276;2022-09-27T04:54:28;99910.52;;;12.28;46.94
74079;BME280;62437;51.544;-3.276;2022-09-27T04:56:54;99906.65;;;12.31;46.58
74079;BME280;62437;51.544;-3.276;2022-09-27T04:59:19;99901.32;;;12.58;46.27
74079;BME280;62437;51.544;-3.276;2022-09-27T05:01:45;99897.92;;;12.57;46.56
74079;BME280;62437;51.544;-3.276;2022-09-27T05:04:10;99904.22;;;12.38;46.39
74079;BME280;62437;51.544;-3.276;2022-09-27T05:06:36;99901.68;;;12.48;46.82
74079;BME280;62437;51.544;-3.276;2022-09-27T05:09:02;99892.39;;;12.10;47.09
74079;BME280;62437;51.544;-3.276;2022-09-27T05:11:27;99889.32;;;12.27;47.98
74079;BME280;62437;51.544;-3.276;2022-09-27T05:13:53;99890.18;;;11.73;48.35
74079;BME280;62437;51.544;-3.276;2022-09-27T05:16:18;99888.17;;;12.45;47.35
74079;BME280;62437;51.544;-3.276;2022-09-27T05:18:44;99881.86;;;12.34;46.52
74079;BME280;62437;51.544;-3.276;2022-09-27T05:21:10;99882.49;;;12.12;46.79
74079;BME280;62437;51.544;-3.276;2022-09-27T05:23:36;99872.06;;;12.29;47.27
74079;BME280;62437;51.544;-3.276;2022-09-27T05:26:03;99875.41;;;11.95;47.60
74079;BME280;62437;51.544;-3.276;2022-09-27T05:28:27;99868.58;;;12.35;46.52
74079;BME280;62437;51.544;-3.276;2022-09-27T05:30:55;99862.83;;;12.00;47.88
74079;BME280;62437;51.544;-3.276;2022-09-27T05:33:18;99865.34;;;11.95;47.39
74079;BME280;62437;51.544;-3.276;2022-09-27T05:35:50;99862.39;;;12.26;46.66
74079;BME280;62437;51.544;-3.276;2022-09-27T05:38:09;99860.96;;;12.25;46.74
74079;BME280;62437;51.544;-3.276;2022-09-27T05:40:35;99871.33;;;12.20;48.22
74079;BME280;62437;51.544;-3.276;2022-09-27T05:43:00;99873.76;;;11.78;48.73
74079;BME280;62437;51.544;-3.276;2022-09-27T05:45:26;99873.46;;;11.59;48.94
74079;BME280;62437;51.544;-3.276;2022-09-27T05:47:53;99869.13;;;11.55;49.23
74079;BME280;62437;51.544;-3.276;2022-09-27T05:50:17;99871.19;;;11.42;48.41
74079;BME280;62437;51.544;-3.276;2022-09-27T05:52:43;99865.38;;;11.85;47.90
74079;BME280;62437;51.544;-3.276;2022-09-27T05:55:09;99867.68;;;11.60;48.44
74079;BME280;62437;51.544;-3.276;2022-09-27T05:57:34;99868.02;;;12.03;47.53
74079;BME280;62437;51.544;-3.276;2022-09-27T06:00:00;99870.16;;;12.28;48.02
74079;BME280;62437;51.544;-3.276;2022-09-27T06:02:25;99868.90;;;12.65;46.71
74079;BME280;62437;51.544;-3.276;2022-09-27T06:04:51;99867.70;;;12.25;47.09
74079;BME280;62437;51.544;-3.276;2022-09-27T06:07:17;99874.21;;;11.86;48.70
74079;BME280;62437;51.544;-3.276;2022-09-27T06:09:42;99880.83;;;11.20;49.98
74079;BME280;62437;51.544;-3.276;2022-09-27T06:12:08;99880.86;;;11.94;49.27
74079;BME280;62437;51.544;-3.276;2022-09-27T06:14:34;99880.64;;;11.82;48.97
74079;BME280;62437;51.544;-3.276;2022-09-27T06:16:59;99880.96;;;10.99;52.73
74079;BME280;62437;51.544;-3.276;2022-09-27T06:19:26;99881.00;;;11.74;51.17
74079;BME280;62437;51.544;-3.276;2022-09-27T06:21:50;99878.77;;;11.41;51.51
74079;BME280;62437;51.544;-3.276;2022-09-27T06:24:15;99878.35;;;12.38;50.30
74079;BME280;62437;51.544;-3.276;2022-09-27T06:26:41;99871.48;;;12.43;47.57
74079;BME280;62437;51.544;-3.276;2022-09-27T06:29:07;99864.31;;;11.95;48.77
74079;BME280;62437;51.544;-3.276;2022-09-27T06:31:32;99865.13;;;12.42;48.33
74079;BME280;62437;51.544;-3.276;2022-09-27T06:33:57;99861.16;;;12.32;48.87
74079;BME280;62437;51.544;-3.276;2022-09-27T06:36:23;99856.48;;;12.38;47.93
74079;BME280;62437;51.544;-3.276;2022-09-27T06:38:49;99858.33;;;12.91;46.68
74079;BME280;62437;51.544;-3.276;2022-09-27T06:41:14;99856.29;;;12.83;47.50
74079;BME280;62437;51.544;-3.276;2022-09-27T06:43:40;99856.14;;;12.85;47.20
74079;BME280;62437;51.544;-3.276;2022-09-27T06:46:05;99851.28;;;13.05;46.43
74079;BME280;62437;51.544;-3.276;2022-09-27T06:48:32;99851.79;;;11.79;48.01
74079;BME280;62437;51.544;-3.276;2022-09-27T06:50:55;99852.31;;;12.94;46.65
74079;BME280;62437;51.544;-3.276;2022-09-27T06:53:21;99850.77;;;13.06;46.69
74079;BME280;62437;51.544;-3.276;2022-09-27T06:55:47;99843.67;;;13.00;47.44
74079;BME280;62437;51.544;-3.276;2022-09-27T06:58:12;99851.47;;;12.95;47.41
74079;BME280;62437;51.544;-3.276;2022-09-27T07:00:37;99838.48;;;12.94;46.85
74079;BME280;62437;51.544;-3.276;2022-09-27T07:03:03;99826.15;;;12.32;46.88
74079;BME280;62437;51.544;-3.276;2022-09-27T07:05:29;99827.55;;;12.20;47.60
74079;BME280;62437;51.544;-3.276;2022-09-27T07:07:55;99825.74;;;12.45;47.34
74079;BME280;62437;51.544;-3.276;2022-09-27T07:10:20;99818.64;;;12.63;49.61
74079;BME280;62437;51.544;-3.276;2022-09-27T07:12:45;99818.87;;;12.41;49.19
74079;BME280;62437;51.544;-3.276;2022-09-27T07:15:10;99813.04;;;12.60;48.40
74079;BME280;62437;51.544;-3.276;2022-09-27T07:17:36;99810.88;;;11.74;49.03
74079;BME280;62437;51.544;-3.276;2022-09-27T07:20:01;99804.65;;;11.88;48.96
74079;BME280;62437;51.544;-3.276;2022-09-27T07:22:27;99807.23;;;12.73;47.99
74079;BME280;62437;51.544;-3.276;2022-09-27T07:24:52;99801.78;;;12.56;47.86
74079;BME280;62437;51.544;-3.276;2022-09-27T07:27:18;99800.56;;;12.36;48.29
74079;BME280;62437;51.544;-3.276;2022-09-27T07:29:43;99803.09;;;11.94;48.85
74079;BME280;62437;51.544;-3.276;2022-09-27T07:32:09;99804.95;;;12.11;48.65
74079;BME280;62437;51.544;-3.276;2022-09-27T07:34:34;99805.97;;;12.07;49.02
74079;BME280;62437;51.544;-3.276;2022-09-27T07:37:00;99801.91;;;12.48;48.16
74079;BME280;62437;51.544;-3.276;2022-09-27T07:39:25;99799.10;;;12.87;47.30
74079;BME280;62437;51.544;-3.276;2022-09-27T07:41:51;99798.14;;;12.58;48.09
74079;BME280;62437;51.544;-3.276;2022-09-27T07:44:17;99795.65;;;12.67;48.48
74079;BME280;62437;51.544;-3.276;2022-09-27T07:46:42;99798.80;;;13.11;47.66
74079;BME280;62437;51.544;-3.276;2022-09-27T07:49:08;99793.78;;;12.49;47.86
74079;BME280;62437;51.544;-3.276;2022-09-27T07:51:33;99802.60;;;13.15;47.97
74079;BME280;62437;51.544;-3.276;2022-09-27T07:53:59;99796.76;;;12.63;48.74
74079;BME280;62437;51.544;-3.276;2022-09-27T07:56:24;99799.40;;;13.05;47.94
74079;BME280;62437;51.544;-3.276;2022-09-27T07:58:50;99800.36;;;13.15;47.67
74079;BME280;62437;51.544;-3.276;2022-09-27T08:01:16;99798.28;;;12.84;47.47
74079;BME280;62437;51.544;-3.276;2022-09-27T08:03:41;99799.26;;;12.88;47.66
74079;BME280;62437;51.544;-3.276;2022-09-27T08:06:07;99801.05;;;12.29;48.67
74079;BME280;62437;51.544;-3.276;2022-09-27T08:08:32;99792.77;;;12.78;47.88
74079;BME280;62437;51.544;-3.276;2022-09-27T08:10:58;99792.35;;;12.59;50.26
74079;BME280;62437;51.544;-3.276;2022-09-27T08:13:23;99790.36;;;13.00;48.20
74079;BME280;62437;51.544;-3.276;2022-09-27T08:15:48;99785.43;;;12.56;50.41
74079;BME280;62437;51.544;-3.276;2022-09-27T08:18:13;99782.79;;;12.54;51.11
74079;BME280;62437;51.544;-3.276;2022-09-27T08:20:39;99789.14;;;12.37;50.48
74079;BME280;62437;51.544;-3.276;2022-09-27T08:23:04;99800.77;;;12.95;49.58
74079;BME280;62437;51.544;-3.276;2022-09-27T08:25:29;99802.35;;;12.86;49.93
74079;BME280;62437;51.544;-3.276;2022-09-27T08:27:56;99797.51;;;12.75;49.38
74079;BME280;62437;51.544;-3.276;2022-09-27T08:30:21;99797.49;;;12.89;49.65
74079;BME280;62437;51.544;-3.276;2022-09-27T08:32:47;99803.88;;;12.77;50.09
74079;BME280;62437;51.544;-3.276;2022-09-27T08:35:13;99810.31;;;12.91;49.76
74079;BME280;62437;51.544;-3.276;2022-09-27T08:37:38;99802.48;;;12.28;50.06
74079;BME280;62437;51.544;-3.276;2022-09-27T08:40:05;99806.30;;;13.05;52.95
74079;BME280;62437;51.544;-3.276;2022-09-27T08:42:35;99803.50;;;12.93;49.55
74079;BME280;62437;51.544;-3.276;2022-09-27T08:45:02;99808.59;;;12.79;49.49
74079;BME280;62437;51.544;-3.276;2022-09-27T08:47:26;99808.59;;;12.84;49.82
74079;BME280;62437;51.544;-3.276;2022-09-27T08:49:48;99812.91;;;12.59;50.80
74079;BME280;62437;51.544;-3.276;2022-09-27T08:52:14;99806.74;;;13.20;48.92
74079;BME280;62437;51.544;-3.276;2022-09-27T08:54:37;99808.72;;;12.66;50.25
74079;BME280;62437;51.544;-3.276;2022-09-27T08:57:08;99809.41;;;12.72;50.19
74079;BME280;62437;51.544;-3.276;2022-09-27T08:59:30;99807.51;;;12.80;50.83
74079;BME280;62437;51.544;-3.276;2022-09-27T09:01:53;99808.21;;;12.54;50.61
74079;BME280;62437;51.544;-3.276;2022-09-27T09:04:23;99806.88;;;12.51;51.62
74079;BME280;62437;51.544;-3.276;2022-09-27T09:06:50;99798.35;;;12.95;50.76
74079;BME280;62437;51.544;-3.276;2022-09-27T09:09:19;99801.54;;;13.30;49.14
74079;BME280;62437;51.544;-3.276;2022-09-27T09:11:44;99803.33;;;13.83;49.79
74079;BME280;62437;51.544;-3.276;2022-09-27T09:16:34;99790.34;;;13.86;49.00
74079;BME280;62437;51.544;-3.276;2022-09-27T09:19:04;99790.63;;;13.93;48.30
74079;BME280;62437;51.544;-3.276;2022-09-27T09:21:23;99789.71;;;13.77;49.16
74079;BME280;62437;51.544;-3.276;2022-09-27T09:23:55;99792.54;;;14.39;48.10
74079;BME280;62437;51.544;-3.276;2022-09-27T09:26:13;99798.14;;;14.03;49.21
74079;BME280;62437;51.544;-3.276;2022-09-27T09:28:44;99795.98;;;13.86;49.27
74079;BME280;62437;51.544;-3.276;2022-09-27T09:31:04;99798.24;;;14.25;48.81
74079;BME280;62437;51.544;-3.276;2022-09-27T09:33:27;99791.66;;;13.79;49.20
74079;BME280;62437;51.544;-3.276;2022-09-27T09:35:50;99787.73;;;13.77;48.91
74079;BME280;62437;51.544;-3.276;2022-09-27T09:38:19;99780.39;;;13.88;49.04
74079;BME280;62437;51.544;-3.276;2022-09-27T09:40:43;99776.58;;;13.89;49.06
74079;BME280;62437;51.544;-3.276;2022-09-27T09:43:11;99775.24;;;13.35;50.20
74079;BME280;62437;51.544;-3.276;2022-09-27T09:45:32;99772.91;;;14.11;48.77
74079;BME280;62437;51.544;-3.276;2022-09-27T09:47:58;99782.06;;;14.23;48.82
74079;BME280;62437;51.544;-3.276;2022-09-27T09:50:25;99777.97;;;13.37;51.12
74079;BME280;62437;51.544;-3.276;2022-09-27T09:52:49;99783.38;;;13.18;51.00
74079;BME280;62437;51.544;-3.276;2022-09-27T09:55:18;99777.73;;;12.88;50.80
74079;BME280;62437;51.544;-3.276;2022-09-27T09:57:41;99776.83;;;13.70;50.60
74079;BME280;62437;51.544;-3.276;2022-09-27T10:00:13;99764.34;;;13.01;51.45
74079;BME280;62437;51.544;-3.276;2022-09-27T10:02:31;99768.13;;;13.28;50.34
74079;BME280;62437;51.544;-3.276;2022-09-27T10:04:54;99767.23;;;12.82;51.59
74079;BME280;62437;51.544;-3.276;2022-09-27T10:07:21;99765.63;;;12.93;51.56
74079;BME280;62437;51.544;-3.276;2022-09-27T10:09:44;99764.96;;;13.76;50.30
74079;BME280;62437;51.544;-3.276;2022-09-27T10:12:10;99764.38;;;13.27;50.83
74079;BME280;62437;51.544;-3.276;2022-09-27T10:14:35;99763.68;;;13.76;49.75
74079;BME280;62437;51.544;-3.276;2022-09-27T10:17:03;99760.69;;;14.41;48.69
74079;BME280;62437;51.544;-3.276;2022-09-27T10:19:29;99754.99;;;13.77;49.93
74079;BME280;62437;51.544;-3.276;2022-09-27T10:21:52;99754.49;;;12.91;51.17
74079;BME280;62437;51.544;-3.276;2022-09-27T10:24:18;99754.24;;;13.72;49.30
74079;BME280;62437;51.544;-3.276;2022-09-27T10:26:45;99753.93;;;13.82;49.65
74079;BME280;62437;51.544;-3.276;2022-09-27T10:29:15;99754.21;;;13.86;49.67
74079;BME280;62437;51.544;-3.276;2022-09-27T10:31:34;99755.90;;;14.21;49.12
74079;BME280;62437;51.544;-3.276;2022-09-27T10:34:01;99749.27;;;14.50;49.46
74079;BME280;62437;51.544;-3.276;2022-09-27T10:36:27;99736.69;;;14.05;49.07
74079;BME280;62437;51.544;-3.276;2022-09-27T10:38:52;99736.24;;;14.37;48.90
74079;BME280;62437;51.544;-3.276;2022-09-27T10:41:21;99750.06;;;14.64;49.36
74079;BME280;62437;51.544;-3.276;2022-09-27T10:43:41;99734.56;;;14.54;48.64
74079;BME280;62437;51.544;-3.276;2022-09-27T10:46:13;99726.62;;;14.09;49.33
74079;BME280;62437;51.544;-3.276;2022-09-27T10:48:32;99713.97;;;14.56;48.57
74079;BME280;62437;51.544;-3.276;2022-09-27T10:50:59;99721.75;;;14.14;48.73
74079;BME280;62437;51.544;-3.276;2022-09-27T10:53:23;99717.45;;;14.43;49.01
74079;BME280;62437;51.544;-3.276;2022-09-27T10:55:49;99719.34;;;14.39;48.74
74079;BME280;62437;51.544;-3.276;2022-09-27T10:58:18;99720.59;;;15.04;47.74
74079;BME280;62437;51.544;-3.276;2022-09-27T11:00:39;99724.51;;;14.63;47.87
74079;BME280;62437;51.544;-3.276;2022-09-27T11:03:12;99724.53;;;14.26;48.74
74079;BME280;62437;51.544;-3.276;2022-09-27T11:05:33;99727.25;;;14.23;49.65
74079;BME280;62437;51.544;-3.276;2022-09-27T11:07:56;99721.25;;;14.67;48.23
74079;BME280;62437;51.544;-3.276;2022-09-27T11:10:23;99723.28;;;15.15;47.77
74079;BME280;62437;51.544;-3.276;2022-09-27T11:12:45;99724.71;;;14.51;48.40
74079;BME280;62437;51.544;-3.276;2022-09-27T11:15:15;99725.69;;;14.43;48.71
74079;BME280;62437;51.544;-3.276;2022-09-27T11:17:41;99729.63;;;14.02;49.51
74079;BME280;62437;51.544;-3.276;2022-09-27T11:20:13;99728.89;;;13.81;49.84
74079;BME280;62437;51.544;-3.276;2022-09-27T11:25:06;99730.03;;;14.19;49.27
74079;BME280;62437;51.544;-3.276;2022-09-27T11:27:27;99725.85;;;14.97;48.39
74079;BME280;62437;51.544;-3.276;2022-09-27T11:29:56;99716.83;;;14.86;47.86
74079;BME280;62437;51.544;-3.276;2022-09-27T11:32:21;99708.86;;;14.89;47.44
74079;BME280;62437;51.544;-3.276;2022-09-27T11:34:48;99697.88;;;14.78;47.88
74079;BME280;62437;51.544;-3.276;2022-09-27T11:37:10;99697.08;;;15.22;46.56
74079;BME280;62437;51.544;-3.276;2022-09-27T11:39:34;99698.20;;;14.63;47.98
74079;BME280;62437;51.544;-3.276;2022-09-27T11:42:08;99694.17;;;14.57;48.61
74079;BME280;62437;51.544;-3.276;2022-09-27T11:46:47;99686.04;;;15.09;47.31
74079;BME280;62437;51.544;-3.276;2022-09-27T11:49:21;99676.30;;;15.22;47.11
74079;BME280;62437;51.544;-3.276;2022-09-27T11:51:46;99683.21;;;15.33;46.62
74079;BME280;62437;51.544;-3.276;2022-09-27T11:54:14;99679.27;;;14.92;47.67
74079;BME280;62437;51.544;-3.276;2022-09-27T11:56:36;99685.69;;;14.46;48.43
74079;BME280;62437;51.544;-3.276;2022-09-27T11:59:03;99688.24;;;15.30;47.42
74079;BME280;62437;51.544;-3.276;2022-09-27T12:01:25;99695.40;;;15.44;46.76
74079;BME280;62437;51.544;-3.276;2022-09-27T12:06:13;99685.77;;;15.59;46.29
74079;BME280;62437;51.544;-3.276;2022-09-27T12:08:41;99685.62;;;15.59;46.11
74079;BME280;62437;51.544;-3.276;2022-09-27T12:11:02;99673.16;;;15.71;46.27
74079;BME280;62437;51.544;-3.276;2022-09-27T12:13:28;99670.27;;;15.06;46.84
74079;BME280;62437;51.544;-3.276;2022-09-27T12:15:49;99676.82;;;15.54;46.57
74079;BME280;62437;51.544;-3.276;2022-09-27T12:18:21;99677.01;;;15.52;46.62
74079;BME280;62437;51.544;-3.276;2022-09-27T12:20:40;99677.99;;;15.13;47.01
74079;BME280;62437;51.544;-3.276;2022-09-27T12:23:09;99671.29;;;15.41;46.72
74079;BME280;62437;51.544;-3.276;2022-09-27T12:25:33;99671.12;;;14.93;47.29
74079;BME280;62437;51.544;-3.276;2022-09-27T12:28:01;99673.06;;;14.55;48.99
74079;BME280;62437;51.544;-3.276;2022-09-27T12:30:21;99672.88;;;15.12;47.77
74079;BME280;62437;51.544;-3.276;2022-09-27T12:32:55;99668.60;;;15.15;47.22
74079;BME280;62437;51.544;-3.276;2022-09-27T12:35:17;99663.38;;;15.13;47.29
74079;BME280;62437;51.544;-3.276;2022-09-27T12:37:41;99663.09;;;15.38;46.47
74079;BME280;62437;51.544;-3.276;2022-09-27T12:42:35;99663.72;;;14.48;48.64
74079;BME280;62437;51.544;-3.276;2022-09-27T12:44:53;99656.00;;;15.33;46.95
74079;BME280;62437;51.544;-3.276;2022-09-27T12:47:32;99645.88;;;14.80;47.45
74079;BME280;62437;51.544;-3.276;2022-09-27T12:49:51;99639.85;;;15.07;46.89
74079;BME280;62437;51.544;-3.276;2022-09-27T12:52:13;99635.70;;;15.14;46.71
74079;BME280;62437;51.544;-3.276;2022-09-27T12:57:02;99632.30;;;14.96;47.12
74079;BME280;62437;51.544;-3.276;2022-09-27T12:59:36;99634.16;;;15.21;46.70
74079;BME280;62437;51.544;-3.276;2022-09-27T13:06:52;99634.38;;;15.42;45.82
74079;BME280;62437;51.544;-3.276;2022-09-27T13:09:22;99641.57;;;15.55;45.93